Airport ICAO


13:45 UTC

27°C

Overcast


An affordable passengers' Moving Map for your aircraft. Made for the iPad and the iPhone
More information here

LFMD Mandelieu


Cannes FRANCE   VFR


METAR LFMD 231330Z AUTO 15005KT 100V200 9999 OVC045 27/20 Q1017 NOSIG 0h15min

TAF LFMD 230800Z 2309/2409 VRB03KT 9999 BKN025 BECMG 2309/2311 16010KT BECMG 2317/2319 VRB03KT CAVOK TEMPO 2400/2403 27020G35KT BECMG 2405/2407 BKN010 5h45min





NOTAMS

OPEN